createdAt,value
2022-10-24T00:01:18.492Z,6.03
2022-10-24T00:03:45.389Z,6.03
2022-10-24T00:06:12.309Z,5.94
2022-10-24T00:08:39.372Z,5.98
2022-10-24T00:11:27.888Z,5.96
2022-10-24T00:13:55.434Z,5.86
2022-10-24T00:16:22.290Z,5.86
2022-10-24T00:18:49.189Z,5.82
2022-10-24T00:21:16.170Z,5.78
2022-10-24T00:23:43.008Z,5.76
2022-10-24T00:26:10.807Z,5.72
2022-10-24T00:28:37.830Z,5.67
2022-10-24T00:31:05.751Z,5.64
2022-10-24T00:33:32.588Z,5.63
2022-10-24T00:35:59.467Z,5.66
2022-10-24T00:38:27.011Z,5.65
2022-10-24T00:40:53.932Z,5.68
2022-10-24T00:43:23.107Z,5.76
2022-10-24T00:45:58.890Z,5.81
2022-10-24T00:48:28.709Z,5.86
2022-10-24T00:51:02.010Z,5.97
2022-10-24T00:53:29.369Z,6.09
2022-10-24T00:55:58.153Z,6.26
2022-10-24T00:58:27.130Z,6.40
2022-10-24T01:00:54.065Z,6.54
2022-10-24T01:03:21.051Z,6.64
2022-10-24T01:06:09.469Z,6.78
2022-10-24T01:08:41.868Z,6.92
2022-10-24T01:11:12.611Z,7.03
2022-10-24T01:14:00.428Z,7.13
2022-10-24T01:16:28.690Z,7.22
2022-10-24T01:19:01.368Z,7.30
2022-10-24T01:21:43.788Z,7.39
2022-10-24T01:24:32.408Z,7.46
2022-10-24T01:27:36.668Z,7.53
2022-10-24T01:30:09.748Z,7.58
2022-10-24T01:33:01.133Z,7.64
2022-10-24T01:35:47.952Z,7.62
2022-10-24T01:38:33.049Z,7.73
2022-10-24T01:41:05.291Z,7.74
2022-10-24T01:43:34.830Z,7.81
2022-10-24T01:46:03.602Z,7.86
2022-10-24T01:48:33.569Z,7.90
2022-10-24T01:51:00.591Z,7.95
2022-10-24T01:53:29.332Z,8.00
2022-10-24T01:55:56.331Z,8.01
2022-10-24T01:58:23.411Z,8.07
2022-10-24T02:00:51.355Z,8.11
2022-10-24T02:03:32.351Z,8.20
2022-10-24T02:06:06.595Z,8.25
2022-10-24T02:08:34.926Z,8.30
2022-10-24T02:11:02.949Z,8.34
2022-10-24T02:13:36.989Z,8.39
2022-10-24T02:16:03.943Z,8.41
2022-10-24T02:18:30.809Z,8.47
2022-10-24T02:21:18.007Z,8.50
2022-10-24T02:24:05.576Z,8.54
2022-10-24T02:26:53.370Z,8.56
2022-10-24T02:29:41.887Z,8.61
2022-10-24T02:32:12.927Z,8.65
2022-10-24T02:34:39.770Z,8.68
2022-10-24T02:37:06.890Z,8.71
2022-10-24T02:39:33.774Z,8.72
2022-10-24T02:42:00.667Z,8.74
2022-10-24T02:44:27.549Z,8.75
2022-10-24T02:46:55.176Z,8.80
2022-10-24T02:49:22.088Z,8.80
2022-10-24T02:51:48.907Z,8.79
2022-10-24T02:54:15.751Z,8.79
2022-10-24T02:56:46.511Z,8.80
2022-10-24T02:59:13.397Z,8.81
2022-10-24T03:01:40.308Z,8.80
2022-10-24T03:04:07.209Z,8.74
2022-10-24T03:06:34.092Z,8.81
2022-10-24T03:09:00.891Z,8.82
2022-10-24T03:11:27.768Z,8.83
2022-10-24T03:13:54.592Z,8.85
2022-10-24T03:16:21.469Z,8.86
2022-10-24T03:18:48.369Z,8.87
2022-10-24T03:21:15.250Z,8.88
2022-10-24T03:23:42.110Z,8.89
2022-10-24T03:26:08.949Z,8.91
2022-10-24T03:28:35.789Z,8.92
2022-10-24T03:31:02.607Z,8.93
2022-10-24T03:33:29.491Z,8.94
2022-10-24T03:35:56.310Z,8.96
2022-10-24T03:38:23.316Z,8.96
2022-10-24T03:40:50.415Z,8.95
2022-10-24T03:43:17.627Z,9.01
2022-10-24T03:45:44.489Z,8.99
2022-10-24T03:48:11.390Z,9.04
2022-10-24T03:50:38.332Z,9.03
2022-10-24T03:53:05.269Z,9.06
2022-10-24T03:55:32.128Z,9.07
2022-10-24T03:57:58.968Z,9.10
2022-10-24T04:00:28.348Z,9.08
2022-10-24T04:02:55.750Z,9.13
2022-10-24T04:05:22.650Z,9.13
2022-10-24T04:07:49.469Z,9.17
2022-10-24T04:10:16.468Z,9.15
2022-10-24T04:12:43.268Z,9.20
2022-10-24T04:15:10.631Z,9.21
2022-10-24T04:17:37.488Z,9.23
2022-10-24T04:20:05.191Z,9.24
2022-10-24T04:22:31.989Z,9.25
2022-10-24T04:24:58.820Z,9.26
2022-10-24T04:27:25.690Z,9.25
2022-10-24T04:29:52.508Z,9.27
2022-10-24T04:32:19.288Z,9.30
2022-10-24T04:34:46.089Z,9.28
2022-10-24T04:37:13.028Z,9.31
2022-10-24T04:39:40.011Z,9.35
2022-10-24T04:42:06.811Z,9.36
2022-10-24T04:44:33.691Z,9.37
2022-10-24T04:47:00.509Z,9.38
2022-10-24T04:49:27.371Z,9.39
2022-10-24T04:51:54.172Z,9.40
2022-10-24T04:54:21.049Z,9.40
2022-10-24T04:56:47.928Z,9.42
2022-10-24T04:59:14.788Z,9.43
2022-10-24T05:01:41.714Z,9.45
2022-10-24T05:04:09.328Z,9.38
2022-10-24T05:06:36.547Z,9.46
2022-10-24T05:09:04.771Z,9.43
2022-10-24T05:11:32.011Z,9.47
2022-10-24T05:13:58.912Z,9.47
2022-10-24T05:16:25.710Z,9.47
2022-10-24T05:18:52.571Z,9.48
2022-10-24T05:21:19.408Z,9.48
2022-10-24T05:23:46.208Z,9.48
2022-10-24T05:26:13.029Z,9.48
2022-10-24T05:28:39.871Z,9.40
2022-10-24T05:31:06.832Z,9.49
2022-10-24T05:33:33.692Z,9.50
2022-10-24T05:36:00.608Z,9.43
2022-10-24T05:38:27.473Z,9.50
2022-10-24T05:40:54.329Z,9.50
2022-10-24T05:43:21.190Z,9.54
2022-10-24T05:45:48.910Z,9.54
2022-10-24T05:48:16.211Z,9.52
2022-10-24T05:50:43.032Z,9.58
2022-10-24T05:53:10.151Z,9.55
2022-10-24T05:55:37.111Z,9.61
2022-10-24T05:58:03.968Z,9.48
2022-10-24T06:00:33.919Z,9.60
2022-10-24T06:03:01.569Z,9.69
2022-10-24T06:05:28.374Z,9.72
2022-10-24T06:07:55.269Z,9.73
2022-10-24T06:10:22.169Z,9.75
2022-10-24T06:12:49.010Z,9.77
2022-10-24T06:15:15.845Z,9.80
2022-10-24T06:17:42.707Z,9.84
2022-10-24T06:20:10.083Z,9.86
2022-10-24T06:22:36.910Z,9.83
2022-10-24T06:25:03.988Z,9.87
2022-10-24T06:27:30.829Z,9.92
2022-10-24T06:29:57.711Z,9.89
2022-10-24T06:32:24.512Z,9.94
2022-10-24T06:34:51.389Z,9.97
2022-10-24T06:37:18.269Z,10.00
2022-10-24T06:39:45.128Z,10.01
2022-10-24T06:42:11.971Z,10.05
2022-10-24T06:44:38.839Z,10.09
2022-10-24T06:47:06.390Z,10.10
2022-10-24T06:49:33.368Z,10.08
2022-10-24T06:52:00.173Z,10.15
2022-10-24T06:54:30.097Z,10.17
2022-10-24T06:56:57.455Z,10.19
2022-10-24T06:59:24.309Z,10.23
2022-10-24T07:01:51.324Z,10.27
2022-10-24T07:04:18.370Z,10.31
2022-10-24T07:06:45.309Z,10.36
2022-10-24T07:09:15.209Z,10.42
2022-10-24T07:11:43.292Z,10.47
2022-10-24T07:14:10.288Z,10.50
2022-10-24T07:16:37.390Z,10.61
2022-10-24T07:19:05.061Z,10.62
2022-10-24T07:21:32.229Z,10.67
2022-10-24T07:23:59.209Z,10.70
2022-10-24T07:26:27.397Z,10.70
2022-10-24T07:28:56.128Z,10.78
2022-10-24T07:31:24.249Z,10.79
2022-10-24T07:33:51.731Z,10.86
2022-10-24T07:36:20.412Z,10.86
2022-10-24T07:38:48.090Z,10.95
2022-10-24T07:41:14.931Z,11.00
2022-10-24T07:43:41.991Z,11.05
2022-10-24T07:46:10.118Z,11.11
2022-10-24T07:48:38.051Z,11.14
2022-10-24T07:51:11.435Z,11.18
2022-10-24T07:53:38.427Z,11.27
2022-10-24T07:56:08.568Z,11.31
2022-10-24T07:58:36.187Z,11.42
2022-10-24T08:01:07.471Z,11.55
2022-10-24T08:03:34.612Z,11.60
2022-10-24T08:06:04.173Z,11.82
2022-10-24T08:08:36.919Z,11.89
2022-10-24T08:11:15.391Z,11.99
2022-10-24T08:13:42.189Z,12.04
2022-10-24T08:16:10.808Z,12.08
2022-10-24T08:18:39.625Z,12.03
2022-10-24T08:21:08.356Z,12.03
2022-10-24T08:23:35.433Z,12.05
2022-10-24T08:26:05.608Z,12.05
2022-10-24T08:28:32.450Z,12.10
2022-10-24T08:31:00.650Z,12.20
2022-10-24T08:33:27.632Z,12.28
2022-10-24T08:36:02.110Z,12.35
2022-10-24T08:38:29.280Z,12.47
2022-10-24T08:40:56.721Z,12.55
2022-10-24T08:43:23.653Z,12.61
2022-10-24T08:46:32.330Z,12.67
2022-10-24T08:49:13.330Z,12.71
2022-10-24T08:51:43.750Z,12.73
2022-10-24T08:54:14.969Z,12.72
2022-10-24T08:56:41.791Z,12.74
2022-10-24T08:59:10.888Z,12.81
2022-10-24T09:02:02.099Z,12.85
2022-10-24T09:04:36.567Z,12.90
2022-10-24T09:07:03.671Z,12.97
2022-10-24T09:09:36.430Z,13.16
2022-10-24T09:12:12.228Z,13.27
2022-10-24T09:14:40.330Z,13.38
2022-10-24T09:17:32.790Z,13.50
2022-10-24T09:20:18.452Z,13.59
2022-10-24T09:22:45.370Z,13.66
2022-10-24T09:25:16.427Z,13.74
2022-10-24T09:27:43.574Z,13.80
2022-10-24T09:30:22.631Z,13.93
2022-10-24T09:32:49.766Z,14.02
2022-10-24T09:35:38.871Z,14.11
2022-10-24T09:38:25.560Z,14.15
2022-10-24T09:40:53.694Z,14.18
2022-10-24T09:43:43.771Z,14.23
2022-10-24T09:46:12.896Z,14.25
2022-10-24T09:48:59.431Z,14.30
2022-10-24T09:51:33.789Z,14.29
2022-10-24T09:54:07.895Z,14.34
2022-10-24T09:56:43.514Z,14.37
2022-10-24T09:59:36.561Z,14.39
2022-10-24T10:02:23.326Z,14.48
2022-10-24T10:05:14.914Z,14.59
2022-10-24T10:07:43.161Z,14.66
2022-10-24T10:10:19.392Z,14.80
2022-10-24T10:12:48.311Z,14.89
2022-10-24T10:15:36.768Z,15.03
2022-10-24T10:18:20.395Z,15.30
2022-10-24T10:20:47.309Z,15.51
2022-10-24T10:23:29.028Z,15.81
2022-10-24T10:26:25.316Z,16.26
2022-10-24T10:29:03.009Z,16.99
2022-10-24T10:31:48.268Z,17.55
2022-10-24T10:34:26.090Z,17.87
2022-10-24T10:37:18.908Z,18.21
2022-10-24T10:40:04.309Z,18.41
2022-10-24T10:42:49.529Z,18.54
2022-10-24T10:45:30.734Z,18.65
2022-10-24T10:48:11.189Z,18.95
2022-10-24T10:50:42.453Z,19.49
2022-10-24T10:54:01.588Z,20.31
2022-10-24T10:56:28.449Z,20.88
2022-10-24T10:59:13.969Z,21.70
2022-10-24T11:02:05.459Z,22.21
2022-10-24T11:04:46.511Z,22.43
2022-10-24T11:07:31.509Z,22.51
2022-10-24T11:10:00.010Z,22.37
2022-10-24T11:12:31.132Z,22.35
2022-10-24T11:15:05.068Z,22.47
2022-10-24T11:17:52.170Z,22.24
2022-10-24T11:23:12.389Z,21.58
2022-10-24T11:25:54.649Z,21.31
2022-10-24T11:28:30.769Z,21.11
2022-10-24T11:31:23.589Z,21.07
2022-10-24T11:34:00.231Z,21.22
2022-10-24T11:36:30.907Z,21.22
2022-10-24T11:39:02.491Z,21.17
2022-10-24T11:41:40.490Z,21.12
2022-10-24T11:44:15.208Z,21.17
2022-10-24T11:46:43.849Z,21.29
2022-10-24T11:49:17.588Z,21.46
2022-10-24T11:51:51.191Z,21.86
2022-10-24T11:54:26.772Z,21.78
2022-10-24T11:56:59.831Z,21.74
2022-10-24T11:59:26.811Z,21.68
2022-10-24T12:02:15.936Z,21.68
2022-10-24T12:05:21.549Z,21.31
2022-10-24T12:08:24.069Z,20.81
2022-10-24T12:11:00.810Z,20.32
2022-10-24T12:13:39.696Z,19.96
2022-10-24T12:16:31.567Z,19.66
2022-10-24T12:19:03.151Z,19.39
2022-10-24T12:21:42.087Z,19.23
2022-10-24T12:24:24.813Z,19.07
2022-10-24T12:27:02.890Z,19.01
2022-10-24T12:29:34.434Z,18.87
2022-10-24T12:32:28.909Z,18.75
2022-10-24T12:35:25.255Z,18.55
2022-10-24T12:37:47.108Z,18.33
2022-10-24T12:40:55.879Z,18.11
2022-10-24T12:43:32.350Z,17.88
2022-10-24T12:46:26.515Z,17.67
2022-10-24T12:48:59.570Z,17.44
2022-10-24T12:51:45.293Z,17.21
2022-10-24T12:54:12.035Z,17.04
2022-10-24T12:56:51.249Z,16.87
2022-10-24T12:59:22.410Z,16.70
2022-10-24T13:01:50.567Z,16.60
2022-10-24T13:04:26.470Z,16.55
2022-10-24T13:06:58.810Z,16.46
2022-10-24T13:10:02.570Z,16.39
2022-10-24T13:12:36.290Z,16.29
2022-10-24T13:15:33.059Z,16.16
2022-10-24T13:18:15.010Z,16.12
2022-10-24T13:20:44.005Z,16.01
2022-10-24T13:23:25.153Z,15.95
2022-10-24T13:25:55.891Z,15.91
2022-10-24T13:28:25.795Z,15.88
2022-10-24T13:30:58.619Z,15.81
2022-10-24T13:33:36.334Z,15.71
2022-10-24T13:36:18.125Z,15.61
2022-10-24T13:38:52.636Z,15.52
2022-10-24T13:41:32.578Z,15.43
2022-10-24T13:44:28.593Z,15.39
2022-10-24T13:47:19.349Z,15.37
2022-10-24T13:50:21.417Z,15.33
2022-10-24T13:52:52.158Z,15.23
2022-10-24T13:55:25.371Z,15.24
2022-10-24T13:57:59.690Z,15.23
2022-10-24T14:00:32.168Z,15.18
2022-10-24T14:02:59.946Z,15.24
2022-10-24T14:05:33.136Z,15.25
2022-10-24T14:08:00.132Z,15.28
2022-10-24T14:10:27.049Z,15.26
2022-10-24T14:12:57.324Z,15.28
2022-10-24T14:15:31.274Z,15.25
2022-10-24T14:18:03.033Z,15.21
2022-10-24T14:20:34.672Z,15.13
2022-10-24T14:23:01.698Z,15.10
2022-10-24T14:25:36.285Z,15.04
2022-10-24T14:28:20.788Z,15.00
2022-10-24T14:30:55.349Z,14.94
2022-10-24T14:33:26.869Z,14.87
2022-10-24T14:35:57.018Z,14.80
2022-10-24T14:38:25.429Z,14.73
2022-10-24T14:41:06.230Z,14.64
2022-10-24T14:43:37.285Z,14.55
2022-10-24T14:46:12.910Z,14.51
2022-10-24T14:48:41.570Z,14.44
2022-10-24T14:51:15.832Z,14.37
2022-10-24T14:53:42.952Z,14.30
2022-10-24T14:56:36.174Z,14.23
2022-10-24T14:59:07.027Z,14.12
2022-10-24T15:01:33.915Z,14.13
2022-10-24T15:04:02.535Z,14.09
2022-10-24T15:06:42.809Z,14.03
2022-10-24T15:09:12.751Z,13.99
2022-10-24T15:11:42.889Z,13.96
2022-10-24T15:14:37.026Z,13.91
2022-10-24T15:17:28.299Z,13.80
2022-10-24T15:20:00.244Z,13.80
2022-10-24T15:22:28.254Z,13.76
2022-10-24T15:24:55.977Z,13.67
2022-10-24T15:27:30.772Z,13.67
2022-10-24T15:29:57.710Z,13.62
2022-10-24T15:32:26.536Z,13.53
2022-10-24T15:34:54.555Z,13.54
2022-10-24T15:37:24.752Z,13.51
2022-10-24T15:39:52.473Z,13.48
2022-10-24T15:42:21.615Z,13.45
2022-10-24T15:44:49.547Z,13.42
2022-10-24T15:47:16.351Z,13.39
2022-10-24T15:49:43.267Z,13.33
2022-10-24T15:52:12.849Z,13.33
2022-10-24T15:54:40.849Z,13.29
2022-10-24T15:57:12.892Z,13.23
2022-10-24T15:59:39.990Z,13.27
2022-10-24T16:02:13.785Z,13.23
2022-10-24T16:04:40.732Z,13.24
2022-10-24T16:09:34.333Z,13.20
2022-10-24T16:12:01.272Z,13.19
2022-10-24T16:14:30.432Z,13.18
2022-10-24T16:16:57.710Z,13.12
2022-10-24T16:19:26.557Z,13.14
2022-10-24T16:21:58.267Z,13.13
2022-10-24T16:24:26.011Z,13.11
2022-10-24T16:26:52.891Z,13.10
2022-10-24T16:29:19.760Z,13.08
2022-10-24T16:31:49.122Z,12.97
2022-10-24T16:34:15.948Z,12.95
2022-10-24T16:36:43.050Z,12.87
2022-10-24T16:39:10.009Z,12.85
2022-10-24T16:41:36.869Z,12.82
2022-10-24T16:44:03.952Z,12.80
2022-10-24T16:46:30.875Z,12.80
2022-10-24T16:48:57.743Z,12.79
2022-10-24T16:51:28.109Z,12.74
2022-10-24T16:53:54.908Z,12.76
2022-10-24T16:56:21.714Z,12.67
2022-10-24T16:58:48.596Z,12.62
2022-10-24T17:01:16.045Z,12.68
2022-10-24T17:03:44.972Z,12.61
2022-10-24T17:06:11.852Z,12.59
2022-10-24T17:08:38.734Z,12.49
2022-10-24T17:11:20.194Z,12.50
2022-10-24T17:13:52.649Z,12.46
2022-10-24T17:16:20.909Z,12.40
2022-10-24T17:19:04.713Z,12.34
2022-10-24T17:21:32.907Z,12.25
2022-10-24T17:23:59.968Z,12.15
2022-10-24T17:26:27.948Z,12.10
2022-10-24T17:28:54.953Z,12.04
2022-10-24T17:31:21.864Z,12.00
2022-10-24T17:33:48.895Z,11.98
2022-10-24T17:36:25.677Z,11.95
2022-10-24T17:39:19.197Z,11.92
2022-10-24T17:41:46.146Z,11.88
2022-10-24T17:44:16.712Z,11.86
2022-10-24T17:46:44.570Z,11.80
2022-10-24T17:49:16.537Z,11.82
2022-10-24T17:51:47.321Z,11.85
2022-10-24T17:54:15.010Z,11.86
2022-10-24T17:56:42.679Z,11.89
2022-10-24T17:59:09.710Z,11.92
2022-10-24T18:01:36.698Z,11.94
2022-10-24T18:04:03.857Z,11.96
2022-10-24T18:06:30.732Z,11.95
2022-10-24T18:08:57.572Z,11.89
2022-10-24T18:11:24.429Z,11.88
2022-10-24T18:13:51.233Z,11.82
2022-10-24T18:16:18.550Z,11.75
2022-10-24T18:18:46.285Z,11.67
2022-10-24T18:23:45.432Z,11.53
2022-10-24T18:26:14.314Z,11.47
2022-10-24T18:28:42.668Z,11.35
2022-10-24T18:31:10.873Z,11.34
2022-10-24T18:33:37.959Z,11.30
2022-10-24T18:36:09.438Z,11.22
2022-10-24T18:38:36.643Z,11.20
2022-10-24T18:41:03.898Z,11.16
2022-10-24T18:43:30.934Z,11.14
2022-10-24T18:45:58.175Z,11.12
2022-10-24T18:48:25.328Z,11.09
2022-10-24T18:50:52.190Z,11.04
2022-10-24T18:53:26.231Z,10.99
2022-10-24T18:55:53.193Z,11.03
2022-10-24T18:58:20.367Z,11.02
2022-10-24T19:00:47.645Z,11.01
2022-10-24T19:03:23.898Z,10.91
2022-10-24T19:05:59.829Z,10.97
2022-10-24T19:08:27.730Z,10.94
2022-10-24T19:10:56.520Z,10.91
2022-10-24T19:13:26.937Z,10.87
2022-10-24T19:15:58.828Z,10.81
2022-10-24T19:18:25.809Z,10.79
2022-10-24T19:20:52.660Z,10.76
2022-10-24T19:23:19.503Z,10.72
2022-10-24T19:25:46.351Z,10.66
2022-10-24T19:28:16.474Z,10.62
2022-10-24T19:30:44.839Z,10.57
2022-10-24T19:33:12.248Z,10.50
2022-10-24T19:35:40.318Z,10.46
2022-10-24T19:38:07.134Z,10.37
2022-10-24T19:40:34.011Z,10.33
2022-10-24T19:43:00.951Z,10.30
2022-10-24T19:45:27.812Z,10.27
2022-10-24T19:47:55.447Z,10.25
2022-10-24T19:50:22.577Z,10.18
2022-10-24T19:52:49.494Z,10.13
2022-10-24T19:55:16.333Z,10.03
2022-10-24T19:57:43.389Z,10.02
2022-10-24T20:00:11.091Z,10.04
2022-10-24T20:02:37.912Z,10.01
2022-10-24T20:05:05.214Z,9.96
2022-10-24T20:07:33.010Z,9.92
2022-10-24T20:10:00.173Z,9.88
2022-10-24T20:12:27.302Z,9.79
2022-10-24T20:14:54.149Z,9.81
2022-10-24T20:17:20.949Z,9.78
2022-10-24T20:19:47.771Z,9.68
2022-10-24T20:22:14.568Z,9.62
2022-10-24T20:24:41.390Z,9.53
2022-10-24T20:27:08.375Z,9.56
2022-10-24T20:29:36.287Z,9.49
2022-10-24T20:32:03.131Z,9.40
2022-10-24T20:34:29.974Z,9.27
2022-10-24T20:36:56.834Z,9.32
2022-10-24T20:39:23.689Z,9.28
2022-10-24T20:41:53.998Z,9.23
2022-10-24T20:44:21.454Z,9.18
2022-10-24T20:46:48.333Z,9.14
2022-10-24T20:49:15.168Z,9.12
2022-10-24T20:51:42.648Z,9.08
2022-10-24T20:54:10.556Z,9.05
2022-10-24T20:56:42.053Z,8.98
2022-10-24T20:59:09.579Z,8.92
2022-10-24T21:01:36.520Z,8.87
2022-10-24T21:04:03.488Z,8.83
2022-10-24T21:06:31.972Z,8.84
2022-10-24T21:09:00.772Z,8.87
2022-10-24T21:11:29.352Z,8.89
2022-10-24T21:14:04.331Z,8.98
2022-10-24T21:16:31.288Z,9.06
2022-10-24T21:18:58.587Z,9.15
2022-10-24T21:21:25.532Z,9.21
2022-10-24T21:23:53.289Z,9.28
2022-10-24T21:26:20.311Z,9.26
2022-10-24T21:28:47.192Z,9.29
2022-10-24T21:31:15.939Z,9.20
2022-10-24T21:33:42.829Z,9.15
2022-10-24T21:36:14.072Z,9.10
2022-10-24T21:38:42.133Z,9.00
2022-10-24T21:41:09.969Z,8.91
2022-10-24T21:43:40.941Z,8.76
2022-10-24T21:46:18.729Z,8.72
2022-10-24T21:48:45.909Z,8.65
2022-10-24T21:51:20.851Z,8.54
2022-10-24T21:53:58.650Z,8.49
2022-10-24T21:56:27.051Z,8.47
2022-10-24T21:58:55.920Z,8.52
2022-10-24T22:01:26.081Z,8.49
2022-10-24T22:03:56.728Z,8.54
2022-10-24T22:06:23.892Z,8.65
2022-10-24T22:08:50.929Z,8.69
2022-10-24T22:11:28.629Z,8.67
2022-10-24T22:13:55.672Z,8.83
2022-10-24T22:16:24.268Z,8.94
2022-10-24T22:18:51.247Z,8.99
2022-10-24T22:21:32.472Z,9.05
2022-10-24T22:24:00.533Z,9.21
2022-10-24T22:26:27.472Z,9.27
2022-10-24T22:28:57.157Z,9.27
2022-10-24T22:31:28.370Z,9.26
2022-10-24T22:33:55.710Z,9.16
2022-10-24T22:36:59.652Z,9.16
2022-10-24T22:39:27.050Z,9.11
2022-10-24T22:41:54.288Z,9.10
2022-10-24T22:44:21.369Z,9.11
2022-10-24T22:46:58.733Z,9.19
2022-10-24T22:49:44.809Z,9.18
2022-10-24T22:52:12.009Z,9.21
2022-10-24T22:54:39.310Z,9.19
2022-10-24T22:57:06.488Z,9.16
2022-10-24T22:59:33.587Z,9.21
2022-10-24T23:02:19.131Z,9.24
2022-10-24T23:04:53.652Z,9.26
2022-10-24T23:07:30.411Z,9.31
2022-10-24T23:12:42.548Z,9.51
2022-10-24T23:15:13.450Z,9.62
2022-10-24T23:17:40.451Z,9.70
2022-10-24T23:20:34.910Z,9.76
2022-10-24T23:23:16.497Z,9.79
2022-10-24T23:25:56.332Z,9.87
2022-10-24T23:29:09.368Z,9.89
2022-10-24T23:31:36.410Z,9.82
2022-10-24T23:34:03.490Z,9.85
2022-10-24T23:36:30.538Z,9.77
2022-10-24T23:38:57.589Z,9.73
2022-10-24T23:41:24.590Z,9.65
2022-10-24T23:43:51.675Z,9.61
2022-10-24T23:46:36.111Z,9.46
2022-10-24T23:49:21.174Z,9.47
2022-10-24T23:52:14.110Z,9.43
2022-10-24T23:54:41.129Z,9.37
2022-10-24T23:57:14.331Z,9.45
2022-10-24T23:59:41.072Z,9.55
